createdAt,value
2022-07-25T00:01:51.888Z,3.60
2022-07-25T00:04:40.534Z,2.92
2022-07-25T00:07:30.888Z,3.83
2022-07-25T00:10:19.194Z,2.50
2022-07-25T00:13:07.374Z,2.42
2022-07-25T00:15:56.959Z,4.03
2022-07-25T00:18:45.369Z,2.20
2022-07-25T00:21:33.571Z,5.20
2022-07-25T00:24:21.758Z,3.72
2022-07-25T00:27:09.960Z,2.10
2022-07-25T00:29:58.125Z,2.53
2022-07-25T00:32:47.680Z,2.00
2022-07-25T00:35:35.968Z,2.20
2022-07-25T00:38:24.169Z,2.40
2022-07-25T00:41:12.400Z,3.25
2022-07-25T00:44:00.614Z,2.35
2022-07-25T00:46:48.848Z,2.92
2022-07-25T00:49:38.409Z,2.08
2022-07-25T00:52:26.810Z,2.25
2022-07-25T00:55:16.686Z,4.53
2022-07-25T00:58:04.879Z,2.40
2022-07-25T01:00:53.100Z,3.67
2022-07-25T01:03:41.383Z,2.42
2022-07-25T01:06:31.312Z,2.40
2022-07-25T01:09:19.935Z,2.28
2022-07-25T01:12:08.515Z,2.63
2022-07-25T01:14:59.139Z,3.42
2022-07-25T01:17:47.430Z,3.05
2022-07-25T01:20:37.005Z,3.22
2022-07-25T01:23:25.185Z,2.55
2022-07-25T01:26:13.370Z,5.20
2022-07-25T01:29:01.578Z,4.97
2022-07-25T01:31:49.751Z,2.20
2022-07-25T01:34:37.929Z,2.85
2022-07-25T01:37:27.471Z,2.28
2022-07-25T01:40:16.233Z,2.75
2022-07-25T01:43:04.631Z,3.58
2022-07-25T01:45:52.937Z,2.90
2022-07-25T01:48:42.742Z,2.65
2022-07-25T01:51:30.954Z,2.33
2022-07-25T01:54:20.550Z,2.30
2022-07-25T01:57:10.369Z,6.18
2022-07-25T02:00:00.282Z,3.38
2022-07-25T02:02:48.569Z,3.13
2022-07-25T02:05:36.770Z,3.25
2022-07-25T02:08:24.934Z,3.20
2022-07-25T02:11:14.454Z,2.78
2022-07-25T02:14:02.821Z,2.22
2022-07-25T02:16:51.503Z,2.53
2022-07-25T02:19:39.737Z,4.55
2022-07-25T02:22:27.931Z,2.45
2022-07-25T02:25:16.104Z,3.22
2022-07-25T02:28:06.253Z,4.32
2022-07-25T02:30:54.579Z,3.33
2022-07-25T02:33:42.903Z,2.33
2022-07-25T02:36:31.151Z,2.55
2022-07-25T02:39:19.357Z,2.88
2022-07-25T02:42:07.804Z,3.85
2022-07-25T02:44:57.320Z,5.60
2022-07-25T02:47:45.684Z,2.30
2022-07-25T02:50:33.920Z,5.43
2022-07-25T02:53:40.265Z,2.97
2022-07-25T02:56:32.060Z,2.88
2022-07-25T02:59:20.381Z,2.63
2022-07-25T03:02:09.891Z,2.88
2022-07-25T03:04:58.257Z,3.05
2022-07-25T03:07:46.855Z,2.67
2022-07-25T03:10:36.385Z,2.22
2022-07-25T03:13:24.681Z,2.45
2022-07-25T03:16:12.990Z,2.30
2022-07-25T03:19:02.505Z,3.05
2022-07-25T03:21:50.730Z,2.70
2022-07-25T03:24:38.929Z,4.07
2022-07-25T03:27:27.276Z,2.95
2022-07-25T03:30:15.538Z,2.95
2022-07-25T03:33:03.813Z,3.67
2022-07-25T03:35:53.331Z,2.72
2022-07-25T03:38:41.957Z,5.25
2022-07-25T03:41:30.178Z,4.03
2022-07-25T03:44:18.611Z,2.80
2022-07-25T03:47:07.165Z,2.50
2022-07-25T03:49:55.366Z,2.78
2022-07-25T03:52:44.850Z,3.88
2022-07-25T03:55:33.003Z,3.88
2022-07-25T03:58:21.176Z,3.47
2022-07-25T04:01:09.372Z,2.47
2022-07-25T04:03:59.169Z,6.68
2022-07-25T04:06:47.762Z,4.40
2022-07-25T04:09:37.286Z,3.50
2022-07-25T04:12:25.466Z,7.60
2022-07-25T04:15:13.740Z,4.00
2022-07-25T04:18:01.893Z,4.07
2022-07-25T04:20:51.009Z,5.05
2022-07-25T04:23:39.323Z,6.22
2022-07-25T04:26:28.860Z,4.40
2022-07-25T04:29:17.095Z,3.17
2022-07-25T04:32:06.190Z,5.25
2022-07-25T04:34:55.421Z,4.30
2022-07-25T04:37:43.582Z,3.35
2022-07-25T04:40:31.866Z,2.95
2022-07-25T04:43:23.066Z,3.65
2022-07-25T04:46:11.414Z,5.47
2022-07-25T04:48:59.826Z,3.10
2022-07-25T04:51:48.038Z,3.85
2022-07-25T04:54:36.248Z,4.70
2022-07-25T04:57:24.412Z,5.35
2022-07-25T05:00:15.615Z,6.57
2022-07-25T05:03:04.839Z,4.57
2022-07-25T05:05:53.034Z,4.90
2022-07-25T05:08:41.233Z,5.82
2022-07-25T05:11:29.840Z,3.28
2022-07-25T05:14:18.447Z,6.28
2022-07-25T05:17:10.464Z,6.00
2022-07-25T05:19:58.971Z,5.80
2022-07-25T05:22:47.244Z,5.10
2022-07-25T05:25:35.423Z,4.00
2022-07-25T05:28:23.591Z,3.95
2022-07-25T05:31:11.986Z,6.40
2022-07-25T05:34:01.547Z,5.63
2022-07-25T05:36:49.695Z,3.47
2022-07-25T05:39:40.248Z,4.85
2022-07-25T05:42:28.663Z,3.08
2022-07-25T05:45:16.864Z,5.15
2022-07-25T05:48:05.342Z,4.45
2022-07-25T05:50:54.833Z,6.47
2022-07-25T05:53:43.099Z,5.05
2022-07-25T05:56:31.418Z,7.18
2022-07-25T05:59:19.638Z,6.55
2022-07-25T06:02:08.005Z,4.30
2022-07-25T06:04:56.388Z,4.65
2022-07-25T06:07:45.893Z,5.22
2022-07-25T06:10:34.126Z,5.70
2022-07-25T06:13:23.928Z,6.00
2022-07-25T06:16:12.321Z,5.00
2022-07-25T06:19:00.558Z,8.77
2022-07-25T06:21:48.703Z,6.20
2022-07-25T06:24:38.353Z,9.35
2022-07-25T06:27:29.424Z,5.68
2022-07-25T06:30:20.459Z,5.82
2022-07-25T06:33:09.198Z,4.57
2022-07-25T06:35:57.732Z,4.32
2022-07-25T06:38:45.951Z,3.72
2022-07-25T06:41:36.824Z,5.45
2022-07-25T06:44:25.018Z,4.22
2022-07-25T06:47:13.554Z,4.43
2022-07-25T06:50:01.764Z,4.63
2022-07-25T06:52:50.355Z,5.72
2022-07-25T06:55:38.834Z,4.40
2022-07-25T06:58:28.783Z,5.18
2022-07-25T07:01:17.113Z,6.90
2022-07-25T07:04:06.709Z,9.50
2022-07-25T07:06:55.159Z,5.43
2022-07-25T07:09:43.565Z,9.30
2022-07-25T07:12:31.776Z,16.15
2022-07-25T07:15:21.495Z,10.13
2022-07-25T07:18:09.645Z,11.97
2022-07-25T07:20:57.927Z,15.00
2022-07-25T07:23:46.117Z,10.52
2022-07-25T07:26:36.148Z,14.98
2022-07-25T07:29:24.307Z,18.30
2022-07-25T07:32:13.896Z,14.02
2022-07-25T07:35:02.083Z,4.43
2022-07-25T07:37:50.286Z,10.20
2022-07-25T07:40:38.704Z,18.95
2022-07-25T07:43:30.051Z,7.82
2022-07-25T07:46:18.696Z,15.20
2022-07-25T07:49:08.516Z,29.50
2022-07-25T07:51:56.999Z,13.18
2022-07-25T07:55:02.995Z,7.85
2022-07-25T07:57:51.287Z,10.48
2022-07-25T08:00:40.215Z,25.85
2022-07-25T08:03:28.857Z,9.48
2022-07-25T08:06:18.398Z,23.02
2022-07-25T08:09:06.905Z,9.17
2022-07-25T08:11:55.200Z,9.70
2022-07-25T08:14:43.479Z,15.80
2022-07-25T08:17:31.708Z,4.85
2022-07-25T08:20:37.339Z,14.20
2022-07-25T08:23:28.703Z,5.82
2022-07-25T08:26:16.886Z,6.38
2022-07-25T08:29:18.828Z,6.22
2022-07-25T08:32:07.921Z,6.15
2022-07-25T08:34:56.362Z,42.83
2022-07-25T08:37:44.844Z,9.45
2022-07-25T08:40:35.349Z,10.65
2022-07-25T08:43:24.448Z,17.33
2022-07-25T08:46:13.090Z,9.05
2022-07-25T08:49:01.396Z,13.80
2022-07-25T08:51:51.618Z,5.95
2022-07-25T08:54:40.304Z,7.50
2022-07-25T08:57:30.481Z,7.70
2022-07-25T09:03:08.294Z,10.82
2022-07-25T09:05:56.565Z,12.02
2022-07-25T09:08:53.178Z,6.70
2022-07-25T09:11:41.413Z,8.07
2022-07-25T09:14:31.070Z,11.02
2022-07-25T09:17:22.162Z,11.00
2022-07-25T09:20:16.607Z,10.73
2022-07-25T09:23:07.214Z,6.55
2022-07-25T09:26:03.300Z,25.63
2022-07-25T09:28:53.373Z,6.35
2022-07-25T09:31:43.050Z,7.85
2022-07-25T09:34:34.695Z,6.80
2022-07-25T09:37:28.122Z,10.38
2022-07-25T09:40:16.725Z,6.38
2022-07-25T09:43:05.302Z,10.18
2022-07-25T09:45:53.856Z,9.25
2022-07-25T09:48:46.367Z,13.32
2022-07-25T09:51:35.238Z,8.02
2022-07-25T09:54:24.096Z,8.93
2022-07-25T09:57:12.386Z,8.18
2022-07-25T10:00:01.404Z,6.93
2022-07-25T10:02:53.478Z,6.23
2022-07-25T10:05:52.018Z,6.60
2022-07-25T10:08:42.249Z,6.35
2022-07-25T10:11:31.463Z,6.90
2022-07-25T10:14:20.315Z,6.82
2022-07-25T10:17:08.769Z,5.97
2022-07-25T10:19:58.881Z,6.70
2022-07-25T10:22:57.321Z,6.53
2022-07-25T10:25:49.182Z,7.28
2022-07-25T10:28:39.756Z,6.38
2022-07-25T10:31:36.548Z,6.72
2022-07-25T10:34:30.653Z,6.80
2022-07-25T10:37:21.106Z,8.30
2022-07-25T10:40:12.311Z,8.52
2022-07-25T10:43:08.642Z,6.72
2022-07-25T10:46:00.800Z,6.53
2022-07-25T10:49:00.261Z,7.47
2022-07-25T10:51:56.976Z,7.72
2022-07-25T10:54:55.758Z,7.55
2022-07-25T10:58:07.895Z,8.23
2022-07-25T11:00:54.366Z,9.98
2022-07-25T11:03:45.055Z,6.88
2022-07-25T11:06:35.364Z,11.23
2022-07-25T11:09:27.992Z,7.60
2022-07-25T11:12:16.901Z,8.98
2022-07-25T11:15:08.795Z,6.80
2022-07-25T11:17:56.997Z,6.78
2022-07-25T11:20:45.396Z,10.25
2022-07-25T11:23:33.699Z,10.25
2022-07-25T11:26:21.956Z,6.70
2022-07-25T11:29:10.367Z,8.35
2022-07-25T11:32:01.357Z,7.10
2022-07-25T11:34:51.406Z,7.38
2022-07-25T11:37:41.908Z,9.73
2022-07-25T11:40:30.429Z,6.60
2022-07-25T11:43:21.692Z,7.15
2022-07-25T11:46:10.196Z,8.40
2022-07-25T11:49:08.876Z,7.20
2022-07-25T11:51:57.427Z,7.47
2022-07-25T11:54:55.104Z,6.35
2022-07-25T11:57:46.943Z,6.85
2022-07-25T12:00:36.586Z,7.75
2022-07-25T12:03:24.844Z,6.88
2022-07-25T12:06:14.574Z,6.90
2022-07-25T12:12:07.015Z,7.07
2022-07-25T12:14:55.192Z,6.77
2022-07-25T12:17:44.324Z,7.70
2022-07-25T12:20:34.568Z,6.25
2022-07-25T12:23:24.122Z,8.30
2022-07-25T12:26:14.469Z,9.35
2022-07-25T12:29:02.852Z,6.68
2022-07-25T12:31:51.213Z,6.38
2022-07-25T12:34:39.625Z,7.25
2022-07-25T12:37:31.078Z,6.75
2022-07-25T12:40:21.513Z,6.53
2022-07-25T12:43:10.100Z,8.30
2022-07-25T12:45:58.504Z,6.15
2022-07-25T12:48:46.906Z,7.18
2022-07-25T12:51:35.115Z,8.82
2022-07-25T12:54:23.305Z,8.18
2022-07-25T12:57:14.224Z,7.55
2022-07-25T13:00:02.472Z,5.80
2022-07-25T13:02:53.170Z,6.97
2022-07-25T13:05:41.958Z,5.40
2022-07-25T13:08:30.147Z,5.07
2022-07-25T13:11:18.349Z,6.03
2022-07-25T13:14:07.950Z,6.38
2022-07-25T13:19:45.644Z,5.95
2022-07-25T13:22:34.252Z,7.32
2022-07-25T13:25:28.121Z,6.10
2022-07-25T13:28:19.481Z,6.07
2022-07-25T13:31:10.706Z,5.82
2022-07-25T13:33:59.689Z,5.60
2022-07-25T13:36:48.859Z,6.07
2022-07-25T13:39:38.416Z,7.63
2022-07-25T13:42:26.644Z,9.68
2022-07-25T13:45:14.938Z,6.22
2022-07-25T13:48:28.465Z,5.88
2022-07-25T13:51:14.570Z,10.70
2022-07-25T13:54:03.603Z,9.65
2022-07-25T13:56:51.825Z,5.13
2022-07-25T13:59:40.714Z,6.50
2022-07-25T14:02:29.452Z,5.13
2022-07-25T14:05:19.184Z,5.68
2022-07-25T14:08:08.100Z,5.68
2022-07-25T14:10:56.296Z,7.00
2022-07-25T14:13:45.258Z,5.68
2022-07-25T14:16:34.439Z,6.03
2022-07-25T14:19:24.123Z,5.75
2022-07-25T14:22:13.695Z,4.72
2022-07-25T14:25:02.026Z,5.05
2022-07-25T14:27:50.255Z,6.70
2022-07-25T14:30:38.444Z,5.05
2022-07-25T14:33:26.678Z,5.10
2022-07-25T14:36:14.877Z,5.63
2022-07-25T14:39:05.638Z,5.57
2022-07-25T14:41:54.085Z,4.68
2022-07-25T14:44:43.344Z,9.48
2022-07-25T14:47:31.545Z,6.97
2022-07-25T14:50:19.738Z,4.10
2022-07-25T14:53:07.915Z,4.68
2022-07-25T14:55:57.411Z,5.88
2022-07-25T14:58:45.611Z,5.30
2022-07-25T15:01:34.077Z,5.35
2022-07-25T15:04:38.861Z,4.63
2022-07-25T15:07:27.454Z,4.20
2022-07-25T15:10:15.646Z,4.63
2022-07-25T15:13:29.849Z,4.95
2022-07-25T15:19:16.408Z,4.57
2022-07-25T15:22:05.534Z,6.30
2022-07-25T15:25:27.530Z,5.60
2022-07-25T15:28:06.734Z,6.47
2022-07-25T15:30:55.025Z,9.75
2022-07-25T15:33:43.193Z,11.73
2022-07-25T15:36:33.125Z,11.75
2022-07-25T15:39:23.155Z,8.45
2022-07-25T15:42:11.352Z,8.93
2022-07-25T15:45:31.273Z,7.40
2022-07-25T15:48:11.524Z,7.75
2022-07-25T15:51:01.419Z,9.05
2022-07-25T15:53:49.610Z,7.35
2022-07-25T15:56:38.853Z,8.98
2022-07-25T15:59:27.060Z,12.43
2022-07-25T16:02:16.623Z,9.52
2022-07-25T16:05:05.642Z,7.45
2022-07-25T16:07:56.143Z,7.57
2022-07-25T16:10:44.307Z,7.38
2022-07-25T16:13:32.606Z,6.65
2022-07-25T16:16:22.318Z,7.78
2022-07-25T16:19:15.007Z,6.45
2022-07-25T16:22:03.230Z,6.03
2022-07-25T16:24:51.871Z,6.32
2022-07-25T16:27:40.102Z,6.78
2022-07-25T16:30:28.709Z,5.18
2022-07-25T16:33:17.033Z,6.32
2022-07-25T16:36:07.589Z,5.60
2022-07-25T16:38:55.797Z,5.80
2022-07-25T16:41:45.385Z,6.93
2022-07-25T16:44:33.923Z,6.80
2022-07-25T16:47:22.143Z,5.32
2022-07-25T16:50:10.505Z,5.47
2022-07-25T16:53:00.134Z,3.88
2022-07-25T16:55:48.328Z,4.07
2022-07-25T16:58:36.527Z,5.28
2022-07-25T17:01:26.612Z,6.05
2022-07-25T17:04:14.915Z,6.15
2022-07-25T17:07:03.207Z,4.35
2022-07-25T17:09:53.208Z,5.18
2022-07-25T17:12:41.404Z,6.38
2022-07-25T17:15:29.628Z,4.50
2022-07-25T17:18:18.349Z,4.63
2022-07-25T17:21:07.241Z,5.05
2022-07-25T17:23:56.478Z,8.87
2022-07-25T17:26:46.060Z,6.10
2022-07-25T17:29:35.719Z,6.20
2022-07-25T17:32:27.837Z,6.97
2022-07-25T17:35:18.089Z,5.35
2022-07-25T17:38:06.592Z,5.40
2022-07-25T17:40:55.898Z,5.93
2022-07-25T17:43:45.422Z,5.75
2022-07-25T17:46:33.695Z,4.93
2022-07-25T17:49:22.041Z,5.65
2022-07-25T17:52:12.203Z,5.40
2022-07-25T17:55:00.422Z,4.57
2022-07-25T17:57:52.943Z,6.30
2022-07-25T18:00:42.569Z,4.80
2022-07-25T18:03:31.667Z,5.15
2022-07-25T18:06:19.935Z,5.53
2022-07-25T18:09:08.581Z,6.35
2022-07-25T18:12:00.063Z,5.45
2022-07-25T18:14:48.326Z,5.40
2022-07-25T18:17:37.838Z,5.55
2022-07-25T18:20:28.058Z,6.32
2022-07-25T18:23:16.213Z,5.43
2022-07-25T18:26:04.598Z,6.18
2022-07-25T18:28:52.923Z,5.25
2022-07-25T18:31:41.175Z,6.20
2022-07-25T18:34:31.209Z,9.10
2022-07-25T18:37:19.404Z,9.65
2022-07-25T18:40:09.592Z,8.32
2022-07-25T18:45:46.757Z,8.60
2022-07-25T18:48:35.968Z,9.25
2022-07-25T18:51:25.655Z,11.68
2022-07-25T18:54:14.257Z,9.88
2022-07-25T18:57:03.832Z,10.20
2022-07-25T18:59:52.080Z,9.63
2022-07-25T19:02:40.283Z,8.10
2022-07-25T19:05:28.619Z,8.95
2022-07-25T19:08:18.255Z,7.47
2022-07-25T19:11:06.850Z,8.40
2022-07-25T19:13:55.075Z,7.70
2022-07-25T19:16:46.004Z,10.40
2022-07-25T19:19:34.660Z,12.73
2022-07-25T19:22:22.865Z,6.53
2022-07-25T19:25:13.606Z,8.73
2022-07-25T19:28:02.052Z,7.05
2022-07-25T19:30:50.367Z,6.70
2022-07-25T19:33:38.889Z,6.20
2022-07-25T19:36:27.055Z,8.30
2022-07-25T19:39:17.437Z,10.15
2022-07-25T19:44:58.374Z,11.45
2022-07-25T19:47:46.595Z,15.55
2022-07-25T19:50:34.831Z,7.57
2022-07-25T19:53:28.097Z,10.13
2022-07-25T19:56:16.697Z,7.45
2022-07-25T19:59:06.402Z,8.02
2022-07-25T20:01:55.355Z,8.17
2022-07-25T20:04:44.063Z,8.07
2022-07-25T20:07:32.317Z,7.00
2022-07-25T20:10:20.620Z,8.02
2022-07-25T20:13:08.857Z,9.10
2022-07-25T20:15:59.035Z,9.30
2022-07-25T20:18:47.291Z,9.27
2022-07-25T20:21:37.007Z,9.35
2022-07-25T20:24:25.160Z,6.90
2022-07-25T20:27:13.383Z,10.30
2022-07-25T20:30:03.686Z,6.82
2022-07-25T20:32:53.675Z,8.30
2022-07-25T20:35:41.862Z,8.13
2022-07-25T20:38:31.141Z,6.88
2022-07-25T20:41:19.295Z,6.70
2022-07-25T20:44:07.640Z,7.50
2022-07-25T20:46:55.831Z,7.43
2022-07-25T20:49:46.423Z,7.80
2022-07-25T20:52:34.612Z,15.00
2022-07-25T20:55:23.170Z,11.25
2022-07-25T20:58:11.384Z,13.18
2022-07-25T21:00:59.813Z,11.30
2022-07-25T21:03:47.996Z,13.38
2022-07-25T21:06:37.612Z,9.45
2022-07-25T21:09:29.637Z,11.18
2022-07-25T21:12:21.080Z,11.50
2022-07-25T21:15:10.054Z,9.85
2022-07-25T21:17:59.592Z,11.80
2022-07-25T21:20:47.943Z,12.45
2022-07-25T21:23:38.890Z,12.25
2022-07-25T21:26:27.412Z,13.88
2022-07-25T21:29:15.603Z,11.88
2022-07-25T21:32:04.523Z,10.18
2022-07-25T21:34:52.780Z,11.13
2022-07-25T21:37:41.009Z,12.90
2022-07-25T21:40:30.541Z,11.40
2022-07-25T21:43:19.687Z,11.30
2022-07-25T21:46:08.107Z,12.85
2022-07-25T21:49:14.425Z,11.63
2022-07-25T21:52:03.379Z,15.18
2022-07-25T21:54:51.881Z,11.13
2022-07-25T21:57:41.407Z,14.23
2022-07-25T22:00:33.148Z,10.57
2022-07-25T22:03:22.549Z,12.55
2022-07-25T22:06:11.154Z,12.90
2022-07-25T22:08:59.368Z,12.50
2022-07-25T22:11:47.589Z,10.77
2022-07-25T22:14:38.085Z,14.15
2022-07-25T22:17:26.334Z,13.90
2022-07-25T22:20:14.685Z,13.93
2022-07-25T22:23:03.003Z,13.57
2022-07-25T22:25:51.207Z,14.52
2022-07-25T22:28:39.457Z,11.63
2022-07-25T22:31:29.092Z,11.70
2022-07-25T22:34:17.347Z,13.52
2022-07-25T22:37:05.591Z,13.18
2022-07-25T22:39:57.732Z,11.65
2022-07-25T22:42:48.837Z,14.27
2022-07-25T22:45:42.583Z,12.02
2022-07-25T22:48:32.484Z,14.45
2022-07-25T22:51:20.721Z,13.82
2022-07-25T22:54:08.916Z,14.95
2022-07-25T22:56:57.727Z,21.35
2022-07-25T22:59:49.179Z,12.77
2022-07-25T23:02:37.514Z,14.57
2022-07-25T23:05:27.174Z,14.20
2022-07-25T23:08:15.329Z,14.40
2022-07-25T23:11:06.183Z,16.23
2022-07-25T23:13:54.528Z,13.88
2022-07-25T23:16:43.872Z,13.18
2022-07-25T23:19:32.080Z,15.93
2022-07-25T23:22:23.069Z,14.85
2022-07-25T23:25:11.736Z,13.68
2022-07-25T23:27:59.904Z,17.15
2022-07-25T23:30:48.500Z,12.52
2022-07-25T23:33:36.754Z,16.52
2022-07-25T23:36:24.927Z,17.67
2022-07-25T23:39:14.858Z,13.57
2022-07-25T23:42:03.400Z,14.35
2022-07-25T23:44:51.622Z,16.58
2022-07-25T23:47:40.717Z,13.50
2022-07-25T23:50:30.116Z,13.40
2022-07-25T23:53:18.369Z,12.93
2022-07-25T23:56:08.085Z,19.00
2022-07-25T23:58:56.328Z,15.25
